Time;durP1;ratioP1;P1;durP2;ratioP2;P2;SDS_P1;SDS_P2;PMS_P1;PMS_P2;Temp;Humidity;BMP_temperature;BMP_pressure;BME280_temperature;BME280_humidity;BME280_pressure;Samples;Min_cycle;Max_cycle;Signal;HPM_P1;HPM_P2
2022/09/19 00:02:02;;;;;;;6.95;1.00;;;11.30;81.50;;;;;;5075000;28;20025;-70
2022/09/19 00:04:30;;;;;;;6.60;1.20;;;11.30;81.40;;;;;;5073972;28;20100;-69
2022/09/19 00:06:57;;;;;;;4.38;1.30;;;11.30;81.50;;;;;;5074884;28;20041;-70
2022/09/19 00:09:27;;;;;;;5.85;1.30;;;11.30;81.50;;;;;;5074729;28;20049;-69
2022/09/19 00:11:53;;;;;;;6.60;1.83;;;11.30;81.20;;;;;;5074924;28;20009;-69
2022/09/19 00:14:22;;;;;;;5.57;1.63;;;11.30;81.00;;;;;;5074747;28;20021;-69
2022/09/19 00:16:48;;;;;;;8.90;1.23;;;11.30;81.10;;;;;;5074756;28;20028;-69
2022/09/19 00:19:18;;;;;;;5.38;1.30;;;11.30;81.20;;;;;;5074711;28;20049;-70
2022/09/19 00:21:46;;;;;;;3.78;0.90;;;11.30;81.40;;;;;;5074806;28;20028;-69
2022/09/19 00:27:02;;;;;;;7.50;1.52;;;11.30;81.20;;;;;;5074868;28;20051;-69
2022/09/19 00:29:27;;;;;;;6.72;1.50;;;11.30;81.10;;;;;;5073640;28;20025;-69
2022/09/19 00:31:53;;;;;;;2.30;1.10;;;11.20;81.20;;;;;;5074611;28;20021;-69
2022/09/19 00:34:19;;;;;;;3.60;1.15;;;11.20;81.10;;;;;;5074514;28;20051;-69
2022/09/19 00:36:46;;;;;;;4.22;0.80;;;11.20;81.20;;;;;;5074475;28;20029;-69
2022/09/19 00:39:15;;;;;;;5.25;1.00;;;11.20;81.10;;;;;;5074429;28;20077;-69
2022/09/19 00:41:43;;;;;;;5.95;1.10;;;11.20;81.10;;;;;;5074373;28;20035;-69
2022/09/19 00:44:27;;;;;;;6.00;1.00;;;11.20;81.00;;;;;;5074278;28;20029;-69
2022/09/19 00:47:00;;;;;;;4.85;1.38;;;11.20;80.90;;;;;;5073370;28;20085;-69
2022/09/19 00:49:31;;;;;;;5.72;1.20;;;11.20;81.00;;;;;;5074394;28;20038;-70
2022/09/19 00:52:00;;;;;;;4.80;1.10;;;11.20;81.80;;;;;;5074248;28;20024;-70
2022/09/19 00:54:33;;;;;;;2.47;0.82;;;11.20;81.10;;;;;;5074286;28;20013;-69
2022/09/19 00:57:00;;;;;;;5.30;1.10;;;11.20;81.10;;;;;;5074127;28;20029;-70
2022/09/19 00:59:29;;;;;;;6.85;1.70;;;11.20;81.00;;;;;;5074046;28;20501;-70
2022/09/19 01:01:56;;;;;;;16.23;1.33;;;11.20;80.90;;;;;;5056876;28;20041;-70
2022/09/19 01:04:24;;;;;;;3.70;1.23;;;11.20;80.90;;;;;;5072966;28;20060;-69
2022/09/19 01:07:15;;;;;;;7.72;1.23;;;11.20;81.00;;;;;;5073863;28;20086;-70
2022/09/19 01:09:53;;;;;;;5.03;1.15;;;11.20;81.20;;;;;;5073689;28;20045;-69
2022/09/19 01:12:47;;;;;;;8.18;1.65;;;11.20;81.10;;;;;;5073718;28;20025;-69
2022/09/19 01:15:32;;;;;;;5.63;1.85;;;11.20;81.10;;;;;;5073945;28;20017;-69
2022/09/19 01:18:00;;;;;;;9.35;1.67;;;11.20;81.00;;;;;;5073757;28;20084;-69
2022/09/19 01:24:47;;;;;;;3.53;0.90;;;11.20;80.80;;;;;;5073763;28;20097;-69
2022/09/19 01:27:30;;;;;;;6.82;1.42;;;11.20;80.90;;;;;;5065329;28;20053;-70
2022/09/19 01:30:09;;;;;;;4.32;1.08;;;11.20;80.90;;;;;;5073484;28;20067;-69
2022/09/19 01:32:42;;;;;;;4.75;1.02;;;11.20;81.00;;;;;;5072527;28;20116;-69
2022/09/19 01:35:11;;;;;;;6.95;1.38;;;11.20;81.00;;;;;;5073503;28;20080;-70
2022/09/19 01:37:47;;;;;;;5.53;1.00;;;11.10;81.10;;;;;;5073594;28;20076;-69
2022/09/19 01:40:14;;;;;;;4.75;1.23;;;11.00;81.30;;;;;;5073455;28;20025;-69
2022/09/19 01:42:55;;;;;;;4.50;1.33;;;11.10;81.30;;;;;;5073259;28;20046;-69
2022/09/19 01:45:47;;;;;;;4.45;1.10;;;11.10;81.40;;;;;;5072391;28;20059;-69
2022/09/19 01:48:24;;;;;;;7.90;1.17;;;11.10;81.40;;;;;;5072185;28;20033;-69
2022/09/19 01:50:59;;;;;;;9.10;1.27;;;11.10;81.40;;;;;;5073283;28;20491;-69
2022/09/19 01:53:28;;;;;;;5.95;1.52;;;11.00;81.40;;;;;;5073255;28;20029;-69
2022/09/19 01:56:19;;;;;;;4.95;0.93;;;11.00;81.40;;;;;;5073171;28;20028;-69
2022/09/19 01:58:55;;;;;;;4.53;1.13;;;11.10;81.40;;;;;;5072943;28;20084;-70
2022/09/19 02:01:56;;;;;;;5.15;1.20;;;11.00;81.40;;;;;;5073163;28;20025;-70
2022/09/19 02:04:36;;;;;;;4.38;1.05;;;11.00;81.50;;;;;;5061895;28;20041;-69
2022/09/19 02:07:27;;;;;;;4.97;1.02;;;11.00;81.60;;;;;;5073252;28;20128;-69
2022/09/19 02:10:04;;;;;;;8.52;0.98;;;11.00;81.60;;;;;;5072943;28;20049;-69
2022/09/19 02:12:35;;;;;;;6.53;1.10;;;11.00;81.80;;;;;;5073098;28;20017;-69
2022/09/19 02:15:03;;;;;;;3.63;1.15;;;11.00;81.90;;;;;;5073064;28;20021;-69
2022/09/19 02:17:59;;;;;;;4.07;0.90;;;11.00;82.00;;;;;;5073009;28;20020;-69
2022/09/19 02:20:33;;;;;;;5.07;1.08;;;11.10;82.10;;;;;;5073026;28;20029;-70
2022/09/19 02:23:22;;;;;;;7.32;1.38;;;11.10;82.20;;;;;;5072870;28;20036;-69
2022/09/19 02:25:51;;;;;;;6.10;1.25;;;11.10;82.30;;;;;;5072993;28;20492;-69
2022/09/19 02:28:21;;;;;;;5.93;1.25;;;11.10;82.30;;;;;;5072788;28;20032;-70
2022/09/19 02:30:48;;;;;;;5.72;1.38;;;11.10;82.30;;;;;;5072908;28;20051;-69
2022/09/19 02:33:15;;;;;;;2.90;0.77;;;11.10;82.20;;;;;;5055365;28;20028;-69
2022/09/19 02:35:59;;;;;;;6.05;1.40;;;11.20;82.10;;;;;;5072828;28;20037;-70
2022/09/19 02:38:33;;;;;;;6.03;1.92;;;11.20;82.00;;;;;;5072859;28;20059;-69
2022/09/19 02:40:59;;;;;;;4.70;0.80;;;11.20;81.90;;;;;;5072747;28;20025;-69
2022/09/19 02:43:33;;;;;;;2.92;0.90;;;11.20;81.80;;;;;;5072655;28;20025;-69
2022/09/19 02:46:11;;;;;;;4.93;1.00;;;11.20;81.80;;;;;;5072891;28;20048;-69
2022/09/19 02:48:43;;;;;;;5.88;1.17;;;11.10;81.80;;;;;;5072876;28;20071;-69
2022/09/19 02:51:20;;;;;;;3.75;0.90;;;11.00;82.00;;;;;;5072715;28;20027;-69
2022/09/19 02:53:52;;;;;;;8.18;1.02;;;11.10;82.00;;;;;;5071657;28;20048;-69
2022/09/19 02:56:21;;;;;;;3.22;1.00;;;11.10;82.00;;;;;;5072680;28;20025;-69
2022/09/19 02:58:57;;;;;;;5.75;1.40;;;11.10;82.00;;;;;;5072619;28;20025;-69
2022/09/19 03:01:27;;;;;;;8.05;1.17;;;11.10;82.10;;;;;;5072632;28;20025;-69
2022/09/19 03:04:12;;;;;;;0.82;0.60;;;11.10;82.90;;;;;;5072500;28;20032;-69
2022/09/19 03:06:44;;;;;;;5.20;0.98;;;11.10;82.10;;;;;;5072584;28;20017;-69
2022/09/19 03:09:13;;;;;;;7.20;1.48;;;11.10;82.00;;;;;;5072424;28;20056;-69
2022/09/19 03:11:43;;;;;;;3.88;0.88;;;11.10;82.00;;;;;;5075819;28;20048;-69
2022/09/19 03:14:10;;;;;;;5.97;1.02;;;11.20;82.00;;;;;;5076102;28;20025;-69
2022/09/19 03:16:41;;;;;;;5.55;1.17;;;11.20;81.90;;;;;;5076005;28;20546;-69
2022/09/19 03:19:08;;;;;;;7.90;1.00;;;11.20;81.80;;;;;;5076013;28;20080;-69
2022/09/19 03:21:36;;;;;;;8.35;1.13;;;11.20;82.50;;;;;;5075961;28;20052;-69
2022/09/19 03:24:02;;;;;;;6.03;1.08;;;11.30;81.70;;;;;;5074908;28;20047;-69
2022/09/19 03:26:32;;;;;;;5.53;0.90;;;11.30;81.80;;;;;;5075979;28;20043;-70
2022/09/19 03:28:58;;;;;;;4.22;1.23;;;11.30;81.80;;;;;;5075733;28;20033;-69
2022/09/19 03:31:25;;;;;;;3.92;0.70;;;11.30;82.00;;;;;;5075905;28;20044;-69
2022/09/19 03:33:51;;;;;;;6.63;1.25;;;11.40;82.20;;;;;;5075848;28;20110;-69
2022/09/19 03:36:18;;;;;;;4.68;1.00;;;11.40;82.30;;;;;;5075706;28;20039;-69
2022/09/19 03:38:44;;;;;;;4.95;1.10;;;11.40;82.40;;;;;;5075653;28;20104;-69
2022/09/19 03:41:30;;;;;;;6.25;0.80;;;11.50;82.40;;;;;;5075571;28;20112;-69
2022/09/19 03:44:00;;;;;;;7.75;1.17;;;11.50;82.20;;;;;;5075643;28;20060;-69
2022/09/19 03:46:26;;;;;;;8.95;1.20;;;11.50;82.20;;;;;;5074470;28;20036;-69
2022/09/19 03:48:52;;;;;;;4.63;0.77;;;11.60;82.20;;;;;;5075434;28;20040;-69
2022/09/19 03:51:18;;;;;;;9.05;1.40;;;11.60;82.20;;;;;;5057740;28;20029;-69
2022/09/19 03:53:45;;;;;;;4.00;1.20;;;11.60;82.00;;;;;;5075342;28;20036;-69
2022/09/19 03:56:12;;;;;;;4.63;1.05;;;11.60;82.10;;;;;;5074369;28;20059;-69
2022/09/19 03:58:38;;;;;;;2.42;0.90;;;11.60;82.10;;;;;;5075241;28;20039;-69
2022/09/19 04:01:06;;;;;;;4.45;0.93;;;11.60;82.10;;;;;;5057616;28;20048;-69
2022/09/19 04:03:36;;;;;;;4.25;0.90;;;11.50;82.10;;;;;;5075091;28;20033;-69
2022/09/19 04:06:04;;;;;;;3.33;1.25;;;11.50;81.90;;;;;;5075192;28;20100;-69
2022/09/19 04:08:30;;;;;;;8.70;1.42;;;11.50;81.90;;;;;;5075080;28;20037;-69
2022/09/19 04:10:56;;;;;;;6.95;1.30;;;11.40;81.80;;;;;;5074842;28;20049;-69
2022/09/19 04:13:22;;;;;;;5.97;1.38;;;11.40;81.90;;;;;;5075130;28;20052;-69
2022/09/19 04:15:49;;;;;;;6.22;1.20;;;11.40;81.80;;;;;;5074931;28;20029;-69
2022/09/19 04:18:16;;;;;;;6.07;0.77;;;11.40;81.80;;;;;;5074880;28;20089;-69
2022/09/19 04:20:41;;;;;;;9.77;1.33;;;11.30;81.80;;;;;;5073758;28;20025;-69
2022/09/19 04:23:07;;;;;;;6.88;1.15;;;11.30;81.70;;;;;;5074712;28;20083;-69
2022/09/19 04:25:35;;;;;;;9.48;1.42;;;11.30;81.80;;;;;;5074740;28;20056;-69
2022/09/19 04:28:03;;;;;;;8.93;1.10;;;11.30;81.80;;;;;;5074607;28;20081;-69
2022/09/19 04:30:31;;;;;;;5.75;0.95;;;11.20;81.70;;;;;;5073600;28;20071;-69
2022/09/19 04:32:58;;;;;;;6.03;1.00;;;11.20;81.80;;;;;;5074566;28;20053;-69
2022/09/19 04:35:24;;;;;;;4.05;1.10;;;11.20;81.90;;;;;;5073581;28;20503;-69
2022/09/19 04:37:49;;;;;;;5.57;1.10;;;11.20;82.00;;;;;;5074480;28;20033;-69
2022/09/19 04:40:15;;;;;;;6.45;1.42;;;11.20;81.80;;;;;;5074481;28;20027;-69
2022/09/19 04:42:41;;;;;;;4.25;1.00;;;11.20;81.80;;;;;;5074402;28;20419;-69
2022/09/19 04:45:08;;;;;;;3.70;1.20;;;11.20;81.70;;;;;;5074331;28;20032;-69
2022/09/19 04:47:37;;;;;;;3.72;0.95;;;11.20;81.90;;;;;;5074326;28;20029;-69
2022/09/19 04:50:06;;;;;;;4.13;0.90;;;11.20;82.00;;;;;;5073280;28;20067;-69
2022/09/19 04:52:32;;;;;;;4.72;1.25;;;11.20;81.90;;;;;;5074357;28;20028;-69
2022/09/19 04:54:58;;;;;;;3.40;0.70;;;11.20;82.70;;;;;;5074148;28;20112;-69
2022/09/19 04:57:26;;;;;;;4.75;1.20;;;11.20;81.90;;;;;;5074129;28;20025;-70
2022/09/19 04:59:54;;;;;;;4.80;1.00;;;11.30;82.00;;;;;;5074072;28;20036;-69
2022/09/19 05:02:20;;;;;;;9.25;1.20;;;11.30;82.20;;;;;;5073970;28;20040;-69
2022/09/19 05:04:46;;;;;;;3.67;1.05;;;11.30;82.40;;;;;;5072929;28;20027;-68
2022/09/19 05:07:13;;;;;;;4.57;1.55;;;11.40;82.40;;;;;;5073942;28;20029;-69
2022/09/19 05:09:41;;;;;;;4.22;1.02;;;11.40;82.50;;;;;;5073626;28;20064;-69
2022/09/19 05:12:09;;;;;;;3.20;0.95;;;11.40;82.20;;;;;;5073945;28;20038;-69
2022/09/19 05:14:35;;;;;;;7.10;1.50;;;11.50;82.40;;;;;;5056279;28;20029;-70
2022/09/19 05:17:00;;;;;;;5.15;1.33;;;11.40;82.40;;;;;;5073766;28;20067;-69
2022/09/19 05:19:26;;;;;;;7.28;1.25;;;11.50;82.40;;;;;;5072830;28;20052;-69
2022/09/19 05:21:52;;;;;;;8.82;1.40;;;11.50;82.60;;;;;;5073649;28;20033;-69
2022/09/19 05:24:18;;;;;;;11.27;1.20;;;11.50;82.60;;;;;;5072701;28;20025;-69
2022/09/19 05:26:45;;;;;;;3.33;0.90;;;11.40;82.60;;;;;;5073607;28;20021;-69
2022/09/19 05:29:14;;;;;;;8.10;1.67;;;11.50;82.60;;;;;;5073468;28;20048;-69
2022/09/19 05:31:41;;;;;;;5.43;1.17;;;11.50;82.80;;;;;;5072765;28;20021;-69
2022/09/19 05:34:09;;;;;;;7.88;1.63;;;11.40;82.80;;;;;;5072972;28;20029;-69
2022/09/19 05:36:35;;;;;;;2.80;0.85;;;11.50;82.70;;;;;;5072420;28;20025;-69
2022/09/19 05:39:01;;;;;;;5.03;1.35;;;11.50;82.70;;;;;;5073363;28;20072;-69
2022/09/19 05:41:26;;;;;;;8.85;1.20;;;11.50;82.70;;;;;;5072635;28;20029;-69
2022/09/19 05:43:52;;;;;;;11.18;1.25;;;11.40;82.70;;;;;;5073251;28;20088;-69
2022/09/19 05:46:20;;;;;;;2.53;0.98;;;11.50;82.70;;;;;;5073338;28;20025;-69
2022/09/19 05:48:47;;;;;;;4.85;1.20;;;11.50;82.80;;;;;;5073225;28;20032;-70
2022/09/19 05:51:13;;;;;;;5.30;1.05;;;11.40;83.00;;;;;;5073234;28;20025;-70
2022/09/19 05:53:55;;;;;;;6.05;1.75;;;11.40;83.10;;;;;;5072243;28;20040;-69
2022/09/19 05:56:21;;;;;;;4.35;1.10;;;11.40;83.10;;;;;;5072269;28;20063;-69
2022/09/19 05:58:47;;;;;;;5.88;1.30;;;11.40;83.20;;;;;;5073148;28;20036;-70
2022/09/19 06:01:14;;;;;;;5.45;1.35;;;11.50;83.30;;;;;;5073098;28;20033;-69
2022/09/19 06:03:40;;;;;;;5.50;1.52;;;11.40;83.10;;;;;;5071996;28;20025;-69
2022/09/19 06:06:13;;;;;;;4.72;1.27;;;11.40;83.10;;;;;;5073187;28;20049;-69
2022/09/19 06:08:40;;;;;;;9.40;1.38;;;11.40;83.20;;;;;;5073176;28;20021;-69
2022/09/19 06:11:07;;;;;;;8.60;1.25;;;11.40;83.30;;;;;;5071913;28;20047;-69
2022/09/19 06:16:17;;;;;;;2.78;0.95;;;11.50;83.30;;;;;;5073099;28;20083;-69
2022/09/19 06:18:44;;;;;;;5.28;1.05;;;11.50;83.40;;;;;;5072999;28;20093;-69
2022/09/19 06:21:09;;;;;;;6.68;1.33;;;11.50;83.60;;;;;;5072990;28;20036;-69
2022/09/19 06:23:35;;;;;;;5.70;1.98;;;11.50;83.70;;;;;;5071804;28;20033;-69
2022/09/19 06:26:01;;;;;;;10.85;1.35;;;11.50;83.70;;;;;;5071950;28;20032;-69
2022/09/19 06:28:27;;;;;;;6.85;1.33;;;11.60;83.50;;;;;;5072841;28;20029;-69
2022/09/19 06:30:53;;;;;;;7.78;1.55;;;11.60;83.40;;;;;;5072837;28;20029;-69
2022/09/19 06:33:18;;;;;;;3.72;1.35;;;11.60;83.20;;;;;;5071867;28;20025;-69
2022/09/19 06:35:44;;;;;;;4.43;1.23;;;11.60;83.10;;;;;;5072834;28;20032;-69
2022/09/19 06:38:10;;;;;;;4.72;1.88;;;11.60;83.20;;;;;;5072782;28;20029;-69
2022/09/19 06:40:38;;;;;;;3.97;1.42;;;11.70;83.10;;;;;;5072768;28;20041;-69
2022/09/19 06:43:06;;;;;;;5.60;1.77;;;11.60;83.10;;;;;;5072696;28;20021;-69
2022/09/19 06:45:38;;;;;;;4.10;1.60;;;11.60;84.00;;;;;;5074493;28;20024;-69
2022/09/19 06:48:05;;;;;;;8.25;1.55;;;11.60;83.20;;;;;;5076625;28;20020;-69
2022/09/19 06:50:31;;;;;;;4.53;1.58;;;11.70;83.30;;;;;;5076525;28;20049;-69
2022/09/19 06:52:57;;;;;;;4.75;1.50;;;11.70;83.30;;;;;;5076615;28;20025;-69
2022/09/19 06:55:24;;;;;;;7.32;1.80;;;11.80;84.10;;;;;;5076477;28;20029;-69
2022/09/19 06:57:58;;;;;;;8.73;1.75;;;11.80;83.40;;;;;;5076418;28;20024;-69
2022/09/19 07:00:26;;;;;;;4.75;1.42;;;11.90;83.50;;;;;;5075355;28;20080;-69
2022/09/19 07:02:57;;;;;;;6.18;1.77;;;11.90;83.40;;;;;;5076272;28;20051;-69
2022/09/19 07:05:23;;;;;;;10.27;1.80;;;12.00;83.50;;;;;;5076286;28;20021;-69
2022/09/19 07:07:51;;;;;;;7.88;1.52;;;12.10;83.50;;;;;;5075216;28;20029;-69
2022/09/19 07:10:19;;;;;;;6.95;1.77;;;12.20;83.60;;;;;;5075964;28;20129;-69
2022/09/19 07:13:01;;;;;;;3.42;1.58;;;12.20;83.50;;;;;;5076164;28;20021;-69
2022/09/19 07:15:28;;;;;;;8.20;1.40;;;12.30;83.60;;;;;;5075129;28;20051;-69
2022/09/19 07:17:57;;;;;;;7.38;1.73;;;12.40;84.50;;;;;;5076026;28;20092;-69
2022/09/19 07:20:25;;;;;;;6.57;1.70;;;12.50;83.70;;;;;;5076002;28;20032;-69
2022/09/19 07:23:18;;;;;;;4.70;1.58;;;12.60;83.80;;;;;;5058348;28;20039;-69
2022/09/19 07:25:44;;;;;;;10.57;2.25;;;12.60;83.80;;;;;;5075710;28;20032;-69
2022/09/19 07:28:13;;;;;;;6.72;1.67;;;12.70;84.50;;;;;;5075758;28;20047;-69
2022/09/19 07:30:43;;;;;;;6.03;1.60;;;12.80;83.90;;;;;;5075814;28;20080;-69
2022/09/19 07:33:11;;;;;;;4.80;1.60;;;12.90;83.70;;;;;;5075745;28;20025;-69
2022/09/19 07:35:41;;;;;;;6.68;1.55;;;13.00;83.90;;;;;;5075602;28;20097;-70
2022/09/19 07:38:13;;;;;;;6.75;2.53;;;13.10;83.60;;;;;;5075627;28;20029;-69
2022/09/19 07:40:40;;;;;;;7.35;1.50;;;13.20;83.70;;;;;;5074704;28;20472;-69
2022/09/19 07:43:06;;;;;;;3.95;1.30;;;13.30;83.70;;;;;;5075474;28;20039;-69
2022/09/19 07:45:36;;;;;;;6.82;1.77;;;13.40;84.00;;;;;;5075528;28;20085;-70
2022/09/19 07:48:03;;;;;;;2.95;1.20;;;13.50;83.80;;;;;;5075494;28;20021;-69
2022/09/19 07:50:29;;;;;;;4.00;1.40;;;13.60;83.60;;;;;;5074406;28;20021;-69
2022/09/19 07:52:58;;;;;;;7.30;1.30;;;13.60;83.40;;;;;;5074430;28;20025;-69
2022/09/19 07:55:25;;;;;;;9.05;1.27;;;13.80;84.20;;;;;;5074900;28;20040;-70
2022/09/19 07:57:56;;;;;;;4.63;1.55;;;13.90;83.20;;;;;;5074313;28;20067;-69
2022/09/19 08:00:27;;;;;;;4.05;1.20;;;14.00;83.00;;;;;;5074349;28;20017;-70
2022/09/19 08:03:04;;;;;;;5.65;1.35;;;14.10;82.70;;;;;;5074239;28;20021;-69
2022/09/19 08:05:34;;;;;;;4.45;1.13;;;14.20;82.50;;;;;;5075176;28;20029;-70
2022/09/19 08:08:00;;;;;;;4.78;1.00;;;14.30;82.10;;;;;;5075281;28;20017;-70
2022/09/19 08:10:26;;;;;;;3.08;0.90;;;14.30;81.70;;;;;;5074826;28;20044;-69
2022/09/19 08:12:52;;;;;;;4.63;0.95;;;14.40;81.70;;;;;;5074948;28;20032;-69
2022/09/19 08:15:19;;;;;;;5.82;1.17;;;14.50;81.70;;;;;;5074938;28;20056;-69
2022/09/19 08:17:57;;;;;;;6.82;1.15;;;14.60;81.30;;;;;;5074926;28;20028;-70
2022/09/19 08:20:28;;;;;;;7.15;0.90;;;14.60;81.00;;;;;;5074795;28;20029;-70
2022/09/19 08:22:59;;;;;;;5.50;0.85;;;14.70;80.80;;;;;;5074913;28;20084;-70
2022/09/19 08:25:26;;;;;;;5.07;0.70;;;14.70;80.50;;;;;;5074943;28;20028;-70
2022/09/19 08:27:52;;;;;;;4.88;0.98;;;14.70;80.30;;;;;;5073725;28;20052;-70
2022/09/19 08:30:21;;;;;;;4.65;0.68;;;14.70;80.00;;;;;;5057175;28;20025;-70
2022/09/19 08:32:49;;;;;;;4.70;0.65;;;14.70;79.90;;;;;;5074581;28;20053;-70
2022/09/19 08:35:16;;;;;;;11.45;1.25;;;14.70;79.80;;;;;;5073661;28;20029;-70
2022/09/19 08:37:43;;;;;;;4.35;1.23;;;14.80;79.70;;;;;;5073638;28;20125;-69
2022/09/19 08:40:27;;;;;;;6.97;1.10;;;14.90;79.90;;;;;;5074506;28;20029;-70
2022/09/19 08:43:22;;;;;;;3.97;1.00;;;15.00;80.20;;;;;;5073380;28;20033;-69
2022/09/19 08:46:19;;;;;;;4.00;1.02;;;15.10;78.90;;;;;;5069463;28;20063;-69
2022/09/19 08:48:53;;;;;;;4.22;0.82;;;15.30;79.30;;;;;;5074479;28;20025;-69
2022/09/19 08:51:38;;;;;;;6.78;1.20;;;15.40;78.60;;;;;;5074405;28;20025;-70
2022/09/19 08:54:16;;;;;;;5.65;0.95;;;15.50;77.70;;;;;;5074403;28;20027;-69
2022/09/19 08:56:43;;;;;;;5.85;1.13;;;15.70;78.30;;;;;;5074210;28;20051;-70
2022/09/19 08:59:23;;;;;;;4.95;0.70;;;15.80;77.60;;;;;;5074095;28;20025;-70
2022/09/19 09:01:52;;;;;;;5.80;0.60;;;15.90;77.30;;;;;;5074127;28;20032;-69
2022/09/19 09:04:31;;;;;;;4.22;0.85;;;15.90;76.00;;;;;;5073886;28;20021;-70
2022/09/19 09:07:19;;;;;;;4.13;0.90;;;15.90;76.30;;;;;;5073695;28;20051;-69
2022/09/19 09:10:23;;;;;;;6.43;1.10;;;15.80;75.20;;;;;;5072719;28;20049;-69
2022/09/19 09:12:54;;;;;;;6.72;1.00;;;15.80;75.30;;;;;;5062754;28;20044;-69
2022/09/19 09:15:44;;;;;;;4.82;0.70;;;15.80;75.60;;;;;;5073832;28;20029;-69
2022/09/19 09:18:30;;;;;;;6.32;0.85;;;15.90;75.50;;;;;;5072963;28;20029;-69
2022/09/19 09:21:08;;;;;;;4.10;0.90;;;16.00;75.20;;;;;;5072723;28;20067;-70
2022/09/19 09:23:42;;;;;;;3.15;0.50;;;16.00;74.30;;;;;;5073659;28;20494;-69
2022/09/19 09:26:18;;;;;;;2.25;0.80;;;16.10;74.30;;;;;;5073686;28;20024;-69
2022/09/19 09:28:53;;;;;;;4.25;0.90;;;16.20;75.20;;;;;;5073578;28;20085;-69
2022/09/19 09:31:54;;;;;;;7.38;1.08;;;16.30;74.70;;;;;;5072637;28;20048;-67
2022/09/19 09:34:36;;;;;;;3.65;0.70;;;16.40;74.40;;;;;;5061672;28;20036;-69
2022/09/19 09:37:21;;;;;;;8.77;1.27;;;16.60;74.50;;;;;;5072615;28;20035;-69
2022/09/19 09:41:44;;;;;;;5.53;1.20;;;16.60;73.30;;;;;;5073612;28;20349;-69
2022/09/19 09:43:02;;;;;;;4.38;1.10;;;16.70;73.70;;;;;;5073197;28;20080;-70
2022/09/19 09:45:39;;;;;;;6.80;1.00;;;16.80;74.00;;;;;;5073393;28;20047;-70
2022/09/19 09:48:26;;;;;;;7.28;1.00;;;17.00;73.80;;;;;;5073346;28;20028;-68
2022/09/19 09:50:58;;;;;;;6.93;0.88;;;17.10;73.20;;;;;;5072338;28;20032;-68
2022/09/19 09:53:48;;;;;;;12.23;0.90;;;17.10;71.60;;;;;;5073303;28;20036;-69
2022/09/19 09:56:33;;;;;;;6.38;0.88;;;17.10;71.00;;;;;;5072551;28;20020;-70
2022/09/19 10:05:36;;;;;;;3.20;0.68;;;17.10;70.60;;;;;;5073299;28;20054;-68
2022/09/19 10:08:27;;;;;;;5.18;0.93;;;17.30;70.90;;;;;;5073136;28;20047;-70
2022/09/19 10:11:20;;;;;;;4.03;0.75;;;17.40;69.80;;;;;;5071985;28;20480;-70
2022/09/19 10:14:01;;;;;;;4.88;0.93;;;17.50;67.80;;;;;;5073190;28;20029;-70
2022/09/19 10:16:32;;;;;;;7.05;1.58;;;17.50;67.40;;;;;;5073081;28;20025;-70
2022/09/19 10:19:27;;;;;;;7.40;1.27;;;17.60;68.00;;;;;;5074113;28;20028;-67
2022/09/19 10:21:57;;;;;;;4.32;0.57;;;17.70;67.90;;;;;;5071464;28;20041;-67
2022/09/19 10:24:42;;;;;;;4.10;0.80;;;17.60;67.00;;;;;;5075987;28;20029;-70
2022/09/19 10:27:23;;;;;;;2.78;0.45;;;17.50;67.90;;;;;;5076046;28;20029;-69
2022/09/19 10:29:56;;;;;;;1.75;0.40;;;17.30;69.00;;;;;;5076936;28;20024;-69
2022/09/19 10:32:25;;;;;;;3.72;0.65;;;17.00;69.40;;;;;;5076909;28;20075;-70
2022/09/19 10:34:51;;;;;;;1.48;0.65;;;16.70;71.10;;;;;;5076900;28;20042;-69
2022/09/19 10:37:21;;;;;;;3.40;0.52;;;16.60;71.00;;;;;;5076834;28;20104;-69
2022/09/19 10:39:48;;;;;;;2.20;0.40;;;16.40;71.50;;;;;;5076919;28;20086;-69
2022/09/19 10:42:36;;;;;;;2.47;0.45;;;16.20;72.40;;;;;;5075712;28;20017;-69
2022/09/19 10:45:18;;;;;;;1.48;0.45;;;15.90;73.10;;;;;;5076704;28;20032;-69
2022/09/19 10:47:44;;;;;;;4.95;0.85;;;15.70;73.70;;;;;;5076710;28;20013;-69
2022/09/19 10:50:18;;;;;;;5.00;0.68;;;15.50;74.70;;;;;;5076570;28;20025;-69
2022/09/19 10:52:46;;;;;;;1.85;0.60;;;15.40;75.50;;;;;;5076627;28;20029;-69
2022/09/19 10:55:15;;;;;;;1.48;0.50;;;15.30;75.90;;;;;;5076518;28;20017;-69
2022/09/19 10:57:48;;;;;;;2.15;0.60;;;15.20;76.00;;;;;;5076436;28;20060;-69
2022/09/19 11:00:29;;;;;;;5.32;0.90;;;15.20;77.30;;;;;;5075434;28;20017;-69
2022/09/19 11:03:01;;;;;;;1.98;0.50;;;15.20;77.90;;;;;;5076488;28;20028;-69
2022/09/19 11:05:32;;;;;;;3.30;0.73;;;15.20;78.30;;;;;;5076304;28;20045;-69
2022/09/19 11:07:59;;;;;;;3.03;0.68;;;15.30;78.80;;;;;;5076258;28;20025;-69
2022/09/19 11:10:28;;;;;;;2.20;0.70;;;15.30;78.80;;;;;;5058707;28;20039;-69
2022/09/19 11:13:10;;;;;;;3.08;0.60;;;15.30;78.90;;;;;;5076182;28;20025;-69
2022/09/19 11:16:11;;;;;;;6.75;1.58;;;15.30;78.60;;;;;;5076108;28;20104;-69
2022/09/19 11:18:46;;;;;;;1.20;0.52;;;15.30;78.20;;;;;;5056809;28;20038;-69
2022/09/19 11:21:32;;;;;;;2.95;0.73;;;15.20;78.10;;;;;;5076224;28;20071;-69
2022/09/19 11:24:16;;;;;;;5.22;0.65;;;15.30;79.00;;;;;;5076052;28;20032;-69
2022/09/19 11:27:00;;;;;;;2.90;0.63;;;15.30;78.90;;;;;;5076069;28;20047;-69
2022/09/19 11:29:26;;;;;;;1.42;0.50;;;15.30;79.00;;;;;;5075854;28;20096;-69
2022/09/19 11:32:07;;;;;;;1.67;0.50;;;15.40;79.10;;;;;;5074022;28;20017;-69
2022/09/19 11:34:48;;;;;;;0.95;0.70;;;15.40;79.80;;;;;;5075760;28;20032;-69
2022/09/19 11:37:32;;;;;;;5.97;0.82;;;15.50;79.80;;;;;;5075766;28;20025;-69
2022/09/19 11:40:15;;;;;;;2.45;0.88;;;15.60;79.30;;;;;;5075829;28;20040;-69
2022/09/19 11:42:59;;;;;;;3.35;0.88;;;15.80;79.90;;;;;;5075600;28;20025;-69
2022/09/19 11:45:32;;;;;;;5.15;1.10;;;16.00;80.00;;;;;;5075593;28;20025;-69
2022/09/19 11:48:10;;;;;;;3.28;0.95;;;16.20;79.50;;;;;;5075536;28;20028;-69
2022/09/19 11:50:59;;;;;;;3.60;0.80;;;16.40;79.40;;;;;;5075625;28;20025;-69
2022/09/19 11:53:40;;;;;;;1.63;0.60;;;16.60;78.10;;;;;;5074811;28;20052;-69
2022/09/19 11:56:26;;;;;;;7.22;1.33;;;16.70;75.00;;;;;;5075409;28;20403;-69
2022/09/19 11:59:17;;;;;;;7.72;0.93;;;16.80;75.40;;;;;;5074330;28;20027;-69
2022/09/19 12:02:06;;;;;;;3.92;0.50;;;16.90;75.20;;;;;;5075309;28;20017;-69
2022/09/19 12:04:48;;;;;;;4.28;0.75;;;16.90;74.60;;;;;;5075264;28;20033;-69
2022/09/19 12:07:26;;;;;;;3.08;0.70;;;16.90;73.30;;;;;;5075332;28;20028;-69
2022/09/19 12:09:58;;;;;;;3.00;0.88;;;16.90;72.90;;;;;;5073925;28;20044;-69
2022/09/19 12:12:30;;;;;;;2.20;0.80;;;16.90;72.20;;;;;;5075071;28;20017;-69
2022/09/19 12:15:03;;;;;;;2.80;0.70;;;16.80;71.00;;;;;;5074958;28;20029;-69
2022/09/19 12:17:38;;;;;;;5.28;0.70;;;16.70;71.60;;;;;;5075094;28;20045;-69
2022/09/19 12:20:45;;;;;;;3.10;0.85;;;16.60;72.60;;;;;;5075034;28;20028;-69
2022/09/19 12:26:16;;;;;;;1.45;0.70;;;16.30;73.30;;;;;;5074966;28;20036;-69
2022/09/19 12:28:52;;;;;;;1.45;0.63;;;16.20;73.80;;;;;;5074743;28;20021;-69
2022/09/19 12:31:21;;;;;;;3.20;0.70;;;16.10;74.10;;;;;;5074750;28;20021;-69
2022/09/19 12:33:58;;;;;;;3.97;0.75;;;16.10;74.10;;;;;;5074713;28;20024;-70
2022/09/19 12:36:30;;;;;;;2.83;0.70;;;16.10;74.00;;;;;;5074805;28;20045;-69
2022/09/19 12:39:10;;;;;;;4.53;0.88;;;16.00;74.20;;;;;;5074569;28;20035;-69
2022/09/19 12:41:53;;;;;;;3.08;0.80;;;16.00;74.40;;;;;;5074519;28;20033;-69
2022/09/19 12:44:59;;;;;;;2.55;1.00;;;16.00;75.00;;;;;;5074304;28;20025;-69
2022/09/19 12:47:49;;;;;;;2.88;0.88;;;15.90;74.80;;;;;;5074419;28;20017;-69
2022/09/19 12:50:28;;;;;;;2.92;0.73;;;15.90;75.10;;;;;;5074308;28;20412;-69
2022/09/19 12:53:09;;;;;;;4.05;0.93;;;15.80;75.70;;;;;;5074304;28;20095;-69
2022/09/19 12:55:46;;;;;;;3.13;0.70;;;15.80;76.20;;;;;;5074203;28;20025;-69
2022/09/19 12:58:16;;;;;;;2.78;0.60;;;15.80;75.90;;;;;;5074213;28;20029;-68
2022/09/19 13:00:45;;;;;;;7.40;1.08;;;15.80;75.90;;;;;;5074101;28;20029;-69
2022/09/19 13:03:50;;;;;;;2.78;0.70;;;15.80;76.10;;;;;;5074001;28;20028;-69
2022/09/19 13:06:24;;;;;;;1.50;0.73;;;15.90;76.90;;;;;;5052332;28;20038;-68
2022/09/19 13:09:03;;;;;;;5.05;0.90;;;16.00;77.20;;;;;;5068193;28;20040;-70
2022/09/19 13:11:41;;;;;;;4.20;0.90;;;16.10;77.80;;;;;;5074135;28;20025;-69
2022/09/19 13:14:11;;;;;;;2.55;0.60;;;16.20;76.20;;;;;;5073927;28;20028;-68
2022/09/19 13:23:30;;;;;;;2.17;0.70;;;16.20;75.10;;;;;;5073844;28;20025;-69
2022/09/19 13:25:30;;;;;;;1.60;0.20;;;16.20;73.10;;;;;;5073938;28;20032;-70
2022/09/19 13:28:19;;;;;;;1.00;0.50;;;16.10;73.70;;;;;;5072694;28;20080;-69
2022/09/19 13:30:51;;;;;;;3.58;0.52;;;16.00;74.30;;;;;;5073623;28;20461;-70
2022/09/19 13:33:28;;;;;;;5.10;0.70;;;15.90;75.30;;;;;;5073602;28;20503;-69
2022/09/19 13:35:59;;;;;;;3.97;0.68;;;15.90;75.60;;;;;;5073642;28;20021;-69
2022/09/19 13:38:40;;;;;;;3.42;0.65;;;15.90;76.70;;;;;;5072505;28;20044;-69
2022/09/19 13:41:07;;;;;;;1.88;0.65;;;15.90;76.40;;;;;;5073455;28;20025;-69
2022/09/19 13:43:58;;;;;;;1.40;0.70;;;16.00;76.70;;;;;;5072324;28;20025;-69